sensor_id;sensor_type;location;lat;lon;timestamp;pressure;altitude;pressure_sealevel;temperature;humidity
6532;BME280;3299;42.004;24.868;2023-08-31T00:01:35;97452.41;;;25.15;45.09
6532;BME280;3299;42.004;24.868;2023-08-31T00:04:01;97420.56;;;24.79;45.32
6532;BME280;3299;42.004;24.868;2023-08-31T00:06:26;97449.44;;;24.87;45.62
6532;BME280;3299;42.004;24.868;2023-08-31T00:08:52;97442.38;;;24.81;45.81
6532;BME280;3299;42.004;24.868;2023-08-31T00:11:17;97464.31;;;25.06;44.65
6532;BME280;3299;42.004;24.868;2023-08-31T00:13:43;97448.88;;;25.21;44.38
6532;BME280;3299;42.004;24.868;2023-08-31T00:16:08;97443.13;;;25.06;44.59
6532;BME280;3299;42.004;24.868;2023-08-31T00:18:35;97460.72;;;25.01;44.99
6532;BME280;3299;42.004;24.868;2023-08-31T00:21:01;97486.47;;;24.87;45.61
6532;BME280;3299;42.004;24.868;2023-08-31T00:23:28;97466.19;;;24.81;46.27
6532;BME280;3299;42.004;24.868;2023-08-31T00:25:53;97440.22;;;24.41;46.87
6532;BME280;3299;42.004;24.868;2023-08-31T00:28:19;97460.88;;;24.26;47.46
6532;BME280;3299;42.004;24.868;2023-08-31T00:30:45;97470.25;;;24.22;47.55
6532;BME280;3299;42.004;24.868;2023-08-31T00:33:12;97448.72;;;24.18;47.46
6532;BME280;3299;42.004;24.868;2023-08-31T00:35:37;97472.22;;;24.33;47.28
6532;BME280;3299;42.004;24.868;2023-08-31T00:38:03;97455.63;;;24.19;47.66
6532;BME280;3299;42.004;24.868;2023-08-31T00:40:30;97462.53;;;24.20;48.08
6532;BME280;3299;42.004;24.868;2023-08-31T00:42:56;97475.09;;;24.25;48.00
6532;BME280;3299;42.004;24.868;2023-08-31T00:45:22;97482.25;;;24.24;48.18
6532;BME280;3299;42.004;24.868;2023-08-31T00:47:48;97447.44;;;23.90;47.82
6532;BME280;3299;42.004;24.868;2023-08-31T00:50:14;97475.06;;;24.01;47.64
6532;BME280;3299;42.004;24.868;2023-08-31T00:52:41;97460.75;;;23.71;47.07
6532;BME280;3299;42.004;24.868;2023-08-31T00:55:10;97474.72;;;23.77;47.42
6532;BME280;3299;42.004;24.868;2023-08-31T00:57:35;97478.22;;;23.72;47.71
6532;BME280;3299;42.004;24.868;2023-08-31T01:00:01;97467.53;;;23.54;47.93
6532;BME280;3299;42.004;24.868;2023-08-31T01:08:14;97512.03;;;23.44;47.31
6532;BME280;3299;42.004;24.868;2023-08-31T01:13:21;97507.16;;;23.41;47.86
6532;BME280;3299;42.004;24.868;2023-08-31T01:15:51;97478.78;;;23.30;48.30
6532;BME280;3299;42.004;24.868;2023-08-31T01:18:21;97461.28;;;23.29;48.80
6532;BME280;3299;42.004;24.868;2023-08-31T01:21:12;97501.03;;;23.53;48.96
6532;BME280;3299;42.004;24.868;2023-08-31T01:23:52;97479.56;;;23.37;48.94
6532;BME280;3299;42.004;24.868;2023-08-31T01:26:21;97519.31;;;23.55;48.97
6532;BME280;3299;42.004;24.868;2023-08-31T01:28:51;97517.31;;;23.44;49.06
6532;BME280;3299;42.004;24.868;2023-08-31T01:31:17;97516.53;;;23.37;49.34
6532;BME280;3299;42.004;24.868;2023-08-31T01:37:05;97530.16;;;23.21;49.20
6532;BME280;3299;42.004;24.868;2023-08-31T01:39:39;97512.50;;;23.02;48.73
6532;BME280;3299;42.004;24.868;2023-08-31T01:42:11;97529.13;;;23.09;48.56
6532;BME280;3299;42.004;24.868;2023-08-31T01:44:39;97526.69;;;23.01;48.42
6532;BME280;3299;42.004;24.868;2023-08-31T01:47:05;97511.66;;;22.82;48.32
6532;BME280;3299;42.004;24.868;2023-08-31T01:49:38;97540.91;;;22.87;48.25
6532;BME280;3299;42.004;24.868;2023-08-31T01:52:04;97500.69;;;22.59;48.27
6532;BME280;3299;42.004;24.868;2023-08-31T01:54:30;97543.94;;;22.84;47.90
6532;BME280;3299;42.004;24.868;2023-08-31T01:56:56;97550.22;;;22.89;47.84
6532;BME280;3299;42.004;24.868;2023-08-31T01:59:21;97550.22;;;22.89;47.94
6532;BME280;3299;42.004;24.868;2023-08-31T02:01:47;97542.91;;;22.91;47.59
6532;BME280;3299;42.004;24.868;2023-08-31T02:04:12;97539.25;;;22.99;47.44
6532;BME280;3299;42.004;24.868;2023-08-31T02:06:38;97549.22;;;22.97;47.41
6532;BME280;3299;42.004;24.868;2023-08-31T02:09:03;97547.38;;;23.04;47.37
6532;BME280;3299;42.004;24.868;2023-08-31T02:11:29;97536.03;;;22.90;47.81
6532;BME280;3299;42.004;24.868;2023-08-31T02:13:57;97513.69;;;22.93;48.01
6532;BME280;3299;42.004;24.868;2023-08-31T02:16:23;97517.34;;;22.98;48.37
6532;BME280;3299;42.004;24.868;2023-08-31T02:18:48;97540.47;;;23.16;48.94
6532;BME280;3299;42.004;24.868;2023-08-31T02:21:13;97517.34;;;23.05;49.78
6532;BME280;3299;42.004;24.868;2023-08-31T02:23:39;97540.91;;;23.26;49.54
6532;BME280;3299;42.004;24.868;2023-08-31T02:26:04;97528.72;;;23.18;49.75
6532;BME280;3299;42.004;24.868;2023-08-31T02:28:30;97549.00;;;23.37;49.64
6532;BME280;3299;42.004;24.868;2023-08-31T02:31:02;97529.53;;;23.32;49.46
6532;BME280;3299;42.004;24.868;2023-08-31T02:33:28;97531.56;;;23.23;49.95
6532;BME280;3299;42.004;24.868;2023-08-31T02:35:54;97535.63;;;23.26;49.49
6532;BME280;3299;42.004;24.868;2023-08-31T02:38:20;97545.97;;;23.34;49.02
6532;BME280;3299;42.004;24.868;2023-08-31T02:40:46;97563.22;;;23.43;48.75
6532;BME280;3299;42.004;24.868;2023-08-31T02:43:12;97539.06;;;23.33;48.68
6532;BME280;3299;42.004;24.868;2023-08-31T02:45:38;97509.63;;;23.23;48.82
6532;BME280;3299;42.004;24.868;2023-08-31T02:48:04;97555.50;;;23.41;49.19
6532;BME280;3299;42.004;24.868;2023-08-31T02:50:31;97561.81;;;23.34;49.52
6532;BME280;3299;42.004;24.868;2023-08-31T02:52:56;97530.13;;;23.08;49.54
6532;BME280;3299;42.004;24.868;2023-08-31T02:55:22;97570.75;;;23.20;49.73
6532;BME280;3299;42.004;24.868;2023-08-31T02:57:48;97575.81;;;23.02;50.16
6532;BME280;3299;42.004;24.868;2023-08-31T03:00:13;97563.81;;;22.80;50.63
6532;BME280;3299;42.004;24.868;2023-08-31T03:02:40;97560.97;;;22.75;50.47
6532;BME280;3299;42.004;24.868;2023-08-31T03:05:05;97558.94;;;22.64;50.55
6532;BME280;3299;42.004;24.868;2023-08-31T03:07:32;97576.00;;;22.68;50.98
6532;BME280;3299;42.004;24.868;2023-08-31T03:09:57;97571.09;;;22.58;51.27
6532;BME280;3299;42.004;24.868;2023-08-31T03:12:23;97597.09;;;22.68;51.56
6532;BME280;3299;42.004;24.868;2023-08-31T03:14:48;97551.81;;;22.45;51.63
6532;BME280;3299;42.004;24.868;2023-08-31T03:17:13;97561.34;;;22.46;52.11
6532;BME280;3299;42.004;24.868;2023-08-31T03:19:39;97570.66;;;22.48;52.01
6532;BME280;3299;42.004;24.868;2023-08-31T03:22:04;97583.25;;;22.53;51.97
6532;BME280;3299;42.004;24.868;2023-08-31T03:24:32;97568.19;;;22.40;52.14
6532;BME280;3299;42.004;24.868;2023-08-31T03:26:57;97568.81;;;22.42;51.89
6532;BME280;3299;42.004;24.868;2023-08-31T03:29:23;97557.81;;;22.32;52.06
6532;BME280;3299;42.004;24.868;2023-08-31T03:31:48;97580.81;;;22.45;51.98
6532;BME280;3299;42.004;24.868;2023-08-31T03:34:13;97588.53;;;22.46;52.02
6532;BME280;3299;42.004;24.868;2023-08-31T03:36:39;97576.91;;;22.41;52.03
6532;BME280;3299;42.004;24.868;2023-08-31T03:39:04;97557.78;;;22.19;52.49
6532;BME280;3299;42.004;24.868;2023-08-31T03:41:30;97583.56;;;22.30;52.39
6532;BME280;3299;42.004;24.868;2023-08-31T03:43:55;97563.47;;;22.16;52.59
6532;BME280;3299;42.004;24.868;2023-08-31T03:46:21;97573.38;;;22.14;52.33
6532;BME280;3299;42.004;24.868;2023-08-31T03:48:46;97593.25;;;22.17;52.58
6532;BME280;3299;42.004;24.868;2023-08-31T03:51:12;97585.13;;;22.12;52.00
6532;BME280;3299;42.004;24.868;2023-08-31T03:53:37;97610.50;;;22.19;52.39
6532;BME280;3299;42.004;24.868;2023-08-31T03:56:03;97593.00;;;22.05;52.35
6532;BME280;3299;42.004;24.868;2023-08-31T03:58:29;97605.97;;;22.07;52.21
6532;BME280;3299;42.004;24.868;2023-08-31T04:00:55;97592.50;;;21.89;52.58
6532;BME280;3299;42.004;24.868;2023-08-31T04:03:20;97608.41;;;22.02;53.12
6532;BME280;3299;42.004;24.868;2023-08-31T04:05:46;97591.34;;;21.98;53.24
6532;BME280;3299;42.004;24.868;2023-08-31T04:08:12;97587.66;;;21.92;53.50
6532;BME280;3299;42.004;24.868;2023-08-31T04:10:37;97604.28;;;21.93;53.67
6532;BME280;3299;42.004;24.868;2023-08-31T04:13:03;97607.41;;;22.03;54.12
6532;BME280;3299;42.004;24.868;2023-08-31T04:15:28;97586.47;;;21.95;53.94
6532;BME280;3299;42.004;24.868;2023-08-31T04:17:56;97607.22;;;22.11;53.29
6532;BME280;3299;42.004;24.868;2023-08-31T04:20:21;97624.72;;;22.25;53.31
6532;BME280;3299;42.004;24.868;2023-08-31T04:22:47;97639.16;;;22.42;53.08
6532;BME280;3299;42.004;24.868;2023-08-31T04:25:13;97628.78;;;22.34;53.39
6532;BME280;3299;42.004;24.868;2023-08-31T04:27:38;97631.84;;;22.31;53.07
6532;BME280;3299;42.004;24.868;2023-08-31T04:30:06;97648.72;;;22.43;52.93
6532;BME280;3299;42.004;24.868;2023-08-31T04:32:32;97647.72;;;22.44;52.67
6532;BME280;3299;42.004;24.868;2023-08-31T04:34:58;97636.09;;;22.38;52.92
6532;BME280;3299;42.004;24.868;2023-08-31T04:37:23;97650.19;;;22.52;53.01
6532;BME280;3299;42.004;24.868;2023-08-31T04:39:49;97650.84;;;22.67;52.60
6532;BME280;3299;42.004;24.868;2023-08-31T04:42:14;97651.44;;;22.56;53.36
6532;BME280;3299;42.004;24.868;2023-08-31T04:44:42;97663.63;;;22.63;53.06
6532;BME280;3299;42.004;24.868;2023-08-31T04:47:07;97625.19;;;22.41;52.88
6532;BME280;3299;42.004;24.868;2023-08-31T04:49:33;97637.19;;;22.44;52.32
6532;BME280;3299;42.004;24.868;2023-08-31T04:51:58;97661.75;;;22.51;52.03
6532;BME280;3299;42.004;24.868;2023-08-31T04:54:24;97631.22;;;22.29;51.43
6532;BME280;3299;42.004;24.868;2023-08-31T04:56:50;97639.34;;;22.34;51.48
6532;BME280;3299;42.004;24.868;2023-08-31T04:59:15;97668.69;;;22.58;51.14
6532;BME280;3299;42.004;24.868;2023-08-31T05:01:41;97633.34;;;22.46;51.46
6532;BME280;3299;42.004;24.868;2023-08-31T05:04:06;97668.53;;;22.73;51.68
6532;BME280;3299;42.004;24.868;2023-08-31T05:06:32;97664.44;;;22.77;51.06
6532;BME280;3299;42.004;24.868;2023-08-31T05:08:57;97676.69;;;22.91;50.69
6532;BME280;3299;42.004;24.868;2023-08-31T05:11:23;97645.81;;;22.85;50.03
6532;BME280;3299;42.004;24.868;2023-08-31T05:13:48;97667.53;;;23.00;50.15
6532;BME280;3299;42.004;24.868;2023-08-31T05:16:14;97676.75;;;23.17;49.99
6532;BME280;3299;42.004;24.868;2023-08-31T05:18:39;97682.66;;;23.32;49.78
6532;BME280;3299;42.004;24.868;2023-08-31T05:21:06;97676.34;;;23.33;49.44
6532;BME280;3299;42.004;24.868;2023-08-31T05:23:31;97665.59;;;23.41;49.79
6532;BME280;3299;42.004;24.868;2023-08-31T05:25:57;97685.09;;;23.66;49.07
6532;BME280;3299;42.004;24.868;2023-08-31T05:28:23;97695.88;;;23.71;48.38
6532;BME280;3299;42.004;24.868;2023-08-31T05:30:57;97698.50;;;23.77;48.31
6532;BME280;3299;42.004;24.868;2023-08-31T05:33:23;97698.88;;;23.80;48.13
6532;BME280;3299;42.004;24.868;2023-08-31T05:35:51;97684.66;;;23.68;48.06
6532;BME280;3299;42.004;24.868;2023-08-31T05:38:16;97689.97;;;23.75;47.75
6532;BME280;3299;42.004;24.868;2023-08-31T05:40:42;97700.13;;;23.84;47.86
6532;BME280;3299;42.004;24.868;2023-08-31T05:43:15;97653.56;;;23.77;47.50
6532;BME280;3299;42.004;24.868;2023-08-31T05:45:41;97660.72;;;23.90;46.96
6532;BME280;3299;42.004;24.868;2023-08-31T05:48:07;97703.75;;;24.23;46.79
6532;BME280;3299;42.004;24.868;2023-08-31T05:50:32;97708.38;;;24.33;46.77
6532;BME280;3299;42.004;24.868;2023-08-31T05:52:58;97712.63;;;24.41;47.12
6532;BME280;3299;42.004;24.868;2023-08-31T05:55:23;97674.59;;;24.35;46.99
6532;BME280;3299;42.004;24.868;2023-08-31T05:57:49;97714.19;;;24.68;46.05
6532;BME280;3299;42.004;24.868;2023-08-31T06:00:15;97670.66;;;24.64;45.94
6532;BME280;3299;42.004;24.868;2023-08-31T06:02:42;97704.69;;;24.91;45.68
6532;BME280;3299;42.004;24.868;2023-08-31T06:05:09;97713.91;;;25.20;45.11
6532;BME280;3299;42.004;24.868;2023-08-31T06:07:34;97715.84;;;25.37;44.96
6532;BME280;3299;42.004;24.868;2023-08-31T06:09:59;97685.69;;;25.38;43.75
6532;BME280;3299;42.004;24.868;2023-08-31T06:12:25;97687.22;;;25.52;44.14
6532;BME280;3299;42.004;24.868;2023-08-31T06:14:50;97718.03;;;25.71;43.08
6532;BME280;3299;42.004;24.868;2023-08-31T06:17:16;97724.16;;;25.72;43.01
6532;BME280;3299;42.004;24.868;2023-08-31T06:19:41;97718.84;;;25.72;43.08
6532;BME280;3299;42.004;24.868;2023-08-31T06:22:08;97690.91;;;25.51;43.01
6532;BME280;3299;42.004;24.868;2023-08-31T06:24:33;97691.19;;;25.61;43.32
6532;BME280;3299;42.004;24.868;2023-08-31T06:26:59;97695.22;;;25.70;42.83
6532;BME280;3299;42.004;24.868;2023-08-31T06:29:25;97719.72;;;25.90;42.29
6532;BME280;3299;42.004;24.868;2023-08-31T06:32:15;97741.84;;;26.02;42.41
6532;BME280;3299;42.004;24.868;2023-08-31T06:34:41;97738.19;;;26.03;42.22
6532;BME280;3299;42.004;24.868;2023-08-31T06:37:06;97737.47;;;26.14;42.18
6532;BME280;3299;42.004;24.868;2023-08-31T06:39:32;97745.88;;;26.29;41.53
6532;BME280;3299;42.004;24.868;2023-08-31T06:41:58;97737.31;;;26.27;41.86
6532;BME280;3299;42.004;24.868;2023-08-31T06:44:24;97728.13;;;26.30;41.85
6532;BME280;3299;42.004;24.868;2023-08-31T06:46:49;97715.66;;;26.30;41.99
6532;BME280;3299;42.004;24.868;2023-08-31T06:49:24;97709.91;;;26.33;41.19
6532;BME280;3299;42.004;24.868;2023-08-31T06:51:49;97723.97;;;26.52;40.94
6532;BME280;3299;42.004;24.868;2023-08-31T06:54:14;97712.13;;;26.54;40.57
6532;BME280;3299;42.004;24.868;2023-08-31T06:56:40;97737.19;;;26.76;40.51
6532;BME280;3299;42.004;24.868;2023-08-31T06:59:05;97721.59;;;26.68;40.70
6532;BME280;3299;42.004;24.868;2023-08-31T07:01:31;97727.19;;;26.78;40.71
6532;BME280;3299;42.004;24.868;2023-08-31T07:03:57;97709.59;;;26.77;40.58
6532;BME280;3299;42.004;24.868;2023-08-31T07:06:23;97747.19;;;27.10;40.26
6532;BME280;3299;42.004;24.868;2023-08-31T07:08:49;97741.88;;;27.10;40.12
6532;BME280;3299;42.004;24.868;2023-08-31T07:11:14;97719.63;;;26.93;40.14
6532;BME280;3299;42.004;24.868;2023-08-31T07:13:40;97727.72;;;27.16;40.38
6532;BME280;3299;42.004;24.868;2023-08-31T07:16:06;97728.78;;;27.27;40.51
6532;BME280;3299;42.004;24.868;2023-08-31T07:18:31;97733.22;;;27.44;40.91
6532;BME280;3299;42.004;24.868;2023-08-31T07:20:57;97709.44;;;27.49;41.08
6532;BME280;3299;42.004;24.868;2023-08-31T07:23:22;97736.50;;;27.69;40.88
6532;BME280;3299;42.004;24.868;2023-08-31T07:25:48;97725.44;;;27.72;40.77
6532;BME280;3299;42.004;24.868;2023-08-31T07:28:14;97717.59;;;27.77;40.35
6532;BME280;3299;42.004;24.868;2023-08-31T07:30:39;97734.28;;;28.07;39.81
6532;BME280;3299;42.004;24.868;2023-08-31T07:33:05;97731.63;;;28.07;39.71
6532;BME280;3299;42.004;24.868;2023-08-31T07:35:31;97751.84;;;28.31;39.69
6532;BME280;3299;42.004;24.868;2023-08-31T07:37:57;97744.34;;;28.40;39.45
6532;BME280;3299;42.004;24.868;2023-08-31T07:40:22;97742.38;;;28.47;39.14
6532;BME280;3299;42.004;24.868;2023-08-31T07:42:48;97747.66;;;28.58;39.17
6532;BME280;3299;42.004;24.868;2023-08-31T07:45:13;97723.63;;;28.53;38.93
6532;BME280;3299;42.004;24.868;2023-08-31T07:47:39;97727.84;;;28.66;38.56
6532;BME280;3299;42.004;24.868;2023-08-31T07:50:04;97719.19;;;28.70;39.24
6532;BME280;3299;42.004;24.868;2023-08-31T07:52:30;97742.47;;;28.91;38.88
6532;BME280;3299;42.004;24.868;2023-08-31T07:54:55;97714.28;;;28.79;38.61
6532;BME280;3299;42.004;24.868;2023-08-31T07:57:21;97743.19;;;28.98;38.14
6532;BME280;3299;42.004;24.868;2023-08-31T07:59:47;97747.09;;;29.07;38.02
6532;BME280;3299;42.004;24.868;2023-08-31T08:02:12;97723.84;;;28.91;37.41
6532;BME280;3299;42.004;24.868;2023-08-31T08:04:37;97731.00;;;29.02;37.27
6532;BME280;3299;42.004;24.868;2023-08-31T08:07:03;97716.41;;;28.93;37.75
6532;BME280;3299;42.004;24.868;2023-08-31T08:09:29;97717.59;;;28.97;37.43
6532;BME280;3299;42.004;24.868;2023-08-31T08:11:55;97728.34;;;29.02;37.85
6532;BME280;3299;42.004;24.868;2023-08-31T08:14:20;97722.78;;;29.04;37.22
6532;BME280;3299;42.004;24.868;2023-08-31T08:16:46;97749.97;;;29.17;37.33
6532;BME280;3299;42.004;24.868;2023-08-31T08:19:11;97720.44;;;29.07;36.63
6532;BME280;3299;42.004;24.868;2023-08-31T08:21:37;97751.41;;;29.25;36.81
6532;BME280;3299;42.004;24.868;2023-08-31T08:24:02;97758.72;;;29.29;36.84
6532;BME280;3299;42.004;24.868;2023-08-31T08:26:28;97755.88;;;29.36;36.54
6532;BME280;3299;42.004;24.868;2023-08-31T08:28:53;97737.50;;;29.34;36.45
6532;BME280;3299;42.004;24.868;2023-08-31T08:31:19;97738.84;;;29.37;35.82
6532;BME280;3299;42.004;24.868;2023-08-31T08:33:44;97716.75;;;29.25;35.92
6532;BME280;3299;42.004;24.868;2023-08-31T08:36:10;97715.16;;;29.24;36.04
6532;BME280;3299;42.004;24.868;2023-08-31T08:38:35;97743.16;;;29.38;35.52
6532;BME280;3299;42.004;24.868;2023-08-31T08:41:05;97741.22;;;29.50;35.51
6532;BME280;3299;42.004;24.868;2023-08-31T08:43:33;97732.31;;;29.44;34.68
6532;BME280;3299;42.004;24.868;2023-08-31T08:46:04;97709.03;;;29.40;35.06
6532;BME280;3299;42.004;24.868;2023-08-31T08:48:32;97747.88;;;29.64;34.84
6532;BME280;3299;42.004;24.868;2023-08-31T08:50:59;97746.34;;;29.68;34.65
6532;BME280;3299;42.004;24.868;2023-08-31T08:53:25;97732.78;;;29.69;34.93
6532;BME280;3299;42.004;24.868;2023-08-31T08:55:51;97722.53;;;29.78;34.91
6532;BME280;3299;42.004;24.868;2023-08-31T08:58:16;97748.06;;;29.90;34.32
6532;BME280;3299;42.004;24.868;2023-08-31T09:00:42;97719.13;;;29.82;34.33
6532;BME280;3299;42.004;24.868;2023-08-31T09:03:08;97726.81;;;29.79;34.97
6532;BME280;3299;42.004;24.868;2023-08-31T09:05:33;97726.16;;;29.88;34.17
6532;BME280;3299;42.004;24.868;2023-08-31T09:10:38;97714.59;;;29.99;34.15
6532;BME280;3299;42.004;24.868;2023-08-31T09:13:11;97725.88;;;30.06;34.05
6532;BME280;3299;42.004;24.868;2023-08-31T09:15:40;97745.47;;;30.28;34.14
6532;BME280;3299;42.004;24.868;2023-08-31T09:18:07;97720.75;;;30.16;33.94
6532;BME280;3299;42.004;24.868;2023-08-31T09:20:46;97734.53;;;30.30;33.63
6532;BME280;3299;42.004;24.868;2023-08-31T09:23:13;97745.19;;;30.46;33.03
6532;BME280;3299;42.004;24.868;2023-08-31T09:25:43;97744.34;;;30.62;32.96
6532;BME280;3299;42.004;24.868;2023-08-31T09:28:09;97737.53;;;30.71;33.14
6532;BME280;3299;42.004;24.868;2023-08-31T09:30:36;97751.50;;;30.78;33.23
6532;BME280;3299;42.004;24.868;2023-08-31T09:33:04;97722.69;;;30.64;33.09
6532;BME280;3299;42.004;24.868;2023-08-31T09:35:30;97724.69;;;30.68;33.08
6532;BME280;3299;42.004;24.868;2023-08-31T09:37:56;97746.28;;;30.88;32.71
6532;BME280;3299;42.004;24.868;2023-08-31T09:40:24;97728.50;;;30.77;32.91
6532;BME280;3299;42.004;24.868;2023-08-31T09:42:50;97738.81;;;30.90;32.94
6532;BME280;3299;42.004;24.868;2023-08-31T09:45:25;97722.56;;;30.70;32.51
6532;BME280;3299;42.004;24.868;2023-08-31T09:47:54;97744.00;;;30.75;32.73
6532;BME280;3299;42.004;24.868;2023-08-31T09:50:20;97747.00;;;30.62;32.96
6532;BME280;3299;42.004;24.868;2023-08-31T09:52:46;97725.88;;;30.39;33.19
6532;BME280;3299;42.004;24.868;2023-08-31T09:55:13;97733.66;;;30.24;33.15
6532;BME280;3299;42.004;24.868;2023-08-31T09:57:39;97746.25;;;30.29;33.13
6532;BME280;3299;42.004;24.868;2023-08-31T10:00:05;97744.25;;;30.19;33.31
6532;BME280;3299;42.004;24.868;2023-08-31T10:02:32;97744.69;;;30.11;33.81
6532;BME280;3299;42.004;24.868;2023-08-31T10:04:58;97748.84;;;30.07;33.72
6532;BME280;3299;42.004;24.868;2023-08-31T10:07:30;97723.63;;;29.82;34.19
6532;BME280;3299;42.004;24.868;2023-08-31T10:09:56;97725.50;;;29.98;34.10
6532;BME280;3299;42.004;24.868;2023-08-31T10:12:22;97728.25;;;30.19;34.10
6532;BME280;3299;42.004;24.868;2023-08-31T10:14:48;97737.25;;;30.51;33.91
6532;BME280;3299;42.004;24.868;2023-08-31T10:17:16;97725.63;;;30.62;33.33
6532;BME280;3299;42.004;24.868;2023-08-31T10:19:42;97740.88;;;30.83;33.40
6532;BME280;3299;42.004;24.868;2023-08-31T10:22:07;97736.78;;;30.97;33.18
6532;BME280;3299;42.004;24.868;2023-08-31T10:24:58;97744.59;;;31.04;33.12
6532;BME280;3299;42.004;24.868;2023-08-31T10:27:27;97728.44;;;30.94;33.28
6532;BME280;3299;42.004;24.868;2023-08-31T10:29:52;97724.91;;;30.67;33.01
6532;BME280;3299;42.004;24.868;2023-08-31T10:32:19;97734.00;;;30.66;33.84
6532;BME280;3299;42.004;24.868;2023-08-31T10:35:03;97727.09;;;30.53;33.12
6532;BME280;3299;42.004;24.868;2023-08-31T10:37:29;97737.69;;;30.65;32.83
6532;BME280;3299;42.004;24.868;2023-08-31T10:40:06;97743.22;;;30.58;33.90
6532;BME280;3299;42.004;24.868;2023-08-31T10:42:32;97728.66;;;30.49;33.24
6532;BME280;3299;42.004;24.868;2023-08-31T10:45:05;97714.84;;;30.36;34.03
6532;BME280;3299;42.004;24.868;2023-08-31T10:47:40;97741.31;;;30.59;33.35
6532;BME280;3299;42.004;24.868;2023-08-31T10:50:22;97730.38;;;30.39;33.53
6532;BME280;3299;42.004;24.868;2023-08-31T10:52:48;97730.06;;;30.35;33.40
6532;BME280;3299;42.004;24.868;2023-08-31T10:55:14;97722.97;;;30.24;33.13
6532;BME280;3299;42.004;24.868;2023-08-31T10:57:40;97728.25;;;30.19;33.75
6532;BME280;3299;42.004;24.868;2023-08-31T11:00:07;97745.94;;;30.25;34.29
6532;BME280;3299;42.004;24.868;2023-08-31T11:02:36;97749.19;;;30.27;33.86
6532;BME280;3299;42.004;24.868;2023-08-31T11:05:05;97756.47;;;30.15;34.25
6532;BME280;3299;42.004;24.868;2023-08-31T11:07:31;97725.56;;;29.86;34.92
6532;BME280;3299;42.004;24.868;2023-08-31T11:10:17;97745.97;;;29.92;34.54
6532;BME280;3299;42.004;24.868;2023-08-31T11:12:44;97750.56;;;29.80;35.32
6532;BME280;3299;42.004;24.868;2023-08-31T11:15:18;97741.81;;;29.68;35.66
6532;BME280;3299;42.004;24.868;2023-08-31T11:17:43;97759.94;;;29.66;37.26
6532;BME280;3299;42.004;24.868;2023-08-31T11:20:13;97737.00;;;29.37;39.80
6532;BME280;3299;42.004;24.868;2023-08-31T11:22:40;97737.28;;;29.24;43.60
6532;BME280;3299;42.004;24.868;2023-08-31T11:25:08;97751.25;;;29.15;47.30
6532;BME280;3299;42.004;24.868;2023-08-31T11:27:34;97775.34;;;29.08;51.67
6532;BME280;3299;42.004;24.868;2023-08-31T11:29:59;97753.19;;;28.68;52.51
6532;BME280;3299;42.004;24.868;2023-08-31T11:32:25;97755.44;;;28.37;55.86
6532;BME280;3299;42.004;24.868;2023-08-31T11:34:50;97727.19;;;28.13;59.03
6532;BME280;3299;42.004;24.868;2023-08-31T11:37:16;97738.75;;;28.30;57.44
6532;BME280;3299;42.004;24.868;2023-08-31T11:39:51;97706.59;;;28.31;56.09
6532;BME280;3299;42.004;24.868;2023-08-31T11:42:17;97732.44;;;28.42;60.92
6532;BME280;3299;42.004;24.868;2023-08-31T11:44:45;97728.34;;;28.28;68.24
6532;BME280;3299;42.004;24.868;2023-08-31T11:47:12;97729.47;;;27.75;65.46
6532;BME280;3299;42.004;24.868;2023-08-31T11:49:40;97712.00;;;27.67;62.86
6532;BME280;3299;42.004;24.868;2023-08-31T11:52:06;97704.34;;;27.59;62.19
6532;BME280;3299;42.004;24.868;2023-08-31T11:54:31;97705.53;;;27.63;58.54
6532;BME280;3299;42.004;24.868;2023-08-31T11:56:57;97695.22;;;27.67;60.39
6532;BME280;3299;42.004;24.868;2023-08-31T11:59:22;97726.06;;;27.97;62.92
6532;BME280;3299;42.004;24.868;2023-08-31T12:01:50;97721.41;;;28.04;62.26
6532;BME280;3299;42.004;24.868;2023-08-31T12:04:21;97719.34;;;28.06;64.57
6532;BME280;3299;42.004;24.868;2023-08-31T12:06:51;97718.06;;;27.97;61.71
6532;BME280;3299;42.004;24.868;2023-08-31T12:09:20;97709.66;;;28.00;60.23
6532;BME280;3299;42.004;24.868;2023-08-31T12:11:51;97683.72;;;27.84;62.00
6532;BME280;3299;42.004;24.868;2023-08-31T12:14:24;97711.59;;;27.93;61.45
6532;BME280;3299;42.004;24.868;2023-08-31T12:16:51;97693.53;;;27.72;60.33
6532;BME280;3299;42.004;24.868;2023-08-31T12:19:18;97714.94;;;27.89;61.04
6532;BME280;3299;42.004;24.868;2023-08-31T12:21:44;97700.47;;;27.73;61.87
6532;BME280;3299;42.004;24.868;2023-08-31T12:24:11;97714.81;;;27.84;63.79
6532;BME280;3299;42.004;24.868;2023-08-31T12:26:37;97693.78;;;27.82;63.71
6532;BME280;3299;42.004;24.868;2023-08-31T12:29:03;97683.25;;;27.87;62.38
6532;BME280;3299;42.004;24.868;2023-08-31T12:31:32;97694.81;;;28.04;62.28
6532;BME280;3299;42.004;24.868;2023-08-31T12:33:58;97699.78;;;28.24;58.63
6532;BME280;3299;42.004;24.868;2023-08-31T12:36:23;97688.69;;;28.38;59.57
6532;BME280;3299;42.004;24.868;2023-08-31T12:38:49;97699.38;;;28.66;54.49
6532;BME280;3299;42.004;24.868;2023-08-31T12:41:14;97713.66;;;28.88;51.51
6532;BME280;3299;42.004;24.868;2023-08-31T12:43:40;97710.06;;;28.94;51.87
6532;BME280;3299;42.004;24.868;2023-08-31T12:46:05;97701.38;;;28.99;53.32
6532;BME280;3299;42.004;24.868;2023-08-31T12:48:32;97684.84;;;28.97;53.00
6532;BME280;3299;42.004;24.868;2023-08-31T12:50:58;97672.16;;;28.92;51.84
6532;BME280;3299;42.004;24.868;2023-08-31T12:53:23;97696.47;;;29.07;50.55
6532;BME280;3299;42.004;24.868;2023-08-31T12:55:49;97689.28;;;29.08;51.12
6532;BME280;3299;42.004;24.868;2023-08-31T12:58:16;97688.66;;;29.17;50.85
6532;BME280;3299;42.004;24.868;2023-08-31T13:00:41;97669.00;;;29.07;48.79
6532;BME280;3299;42.004;24.868;2023-08-31T13:03:08;97682.75;;;29.15;49.87
6532;BME280;3299;42.004;24.868;2023-08-31T13:05:35;97696.03;;;29.27;50.77
6532;BME280;3299;42.004;24.868;2023-08-31T13:08:00;97659.72;;;29.09;50.26
6532;BME280;3299;42.004;24.868;2023-08-31T13:10:26;97679.28;;;29.15;50.88
6532;BME280;3299;42.004;24.868;2023-08-31T13:12:51;97692.78;;;29.25;50.92
6532;BME280;3299;42.004;24.868;2023-08-31T13:15:16;97673.47;;;29.18;51.37
6532;BME280;3299;42.004;24.868;2023-08-31T13:17:42;97668.38;;;29.16;49.91
6532;BME280;3299;42.004;24.868;2023-08-31T13:20:08;97695.94;;;29.38;48.83
6532;BME280;3299;42.004;24.868;2023-08-31T13:22:33;97684.00;;;29.24;48.54